Climbing Hill, Iowa
Current Conditions -  °F | °C
As of 4:52 AM on Friday 28 Nov 2014 (Local Time) from KSUX Reporting Station
Clear Clear  
Wind Chill: 13°   Ceiling: Unl
Heat Index: 23°   Visibility: 10mi
Dew Point: 19°   Wind: 9mph
Humidity: 85%   Direction: 130°SE
Pressure: 29.92"   Gusts: NA
Location:  42.34°N, 96.08°W
Report Text: KSUX 281052Z 13008KT 10SM CLR M05/M07 A2992 RMK AO2 SLP148 T10501072
Loading
Personal Weather Stations






























Interactive Weather Map New forecast layout! Learn more

10-Day Weather Forecast

Advertisements
Track Severe Weather on mobile